Time;durP1;ratioP1;P1;durP2;ratioP2;P2;SDS_P1;SDS_P2;PMS_P1;PMS_P2;Temp;Humidity;BMP_temperature;BMP_pressure;BME280_temperature;BME280_humidity;BME280_pressure;Samples;Min_cycle;Max_cycle;Signal;HPM_P1;HPM_P2
2023/01/03 00:01:46;;;;;;;;;;;;;;;10.57;95.78;101277.13;5091805;28;19932;-61
2023/01/03 00:04:11;;;;;;;;;;;;;;;10.53;95.31;101284.25;5088190;28;19952;-61
2023/01/03 00:06:38;;;;;;;;;;;;;;;10.46;94.98;101282.56;5084674;28;19967;-61
2023/01/03 00:09:08;;;;;;;;;;;;;;;10.36;95.09;101285.34;5073521;28;20015;-62
2023/01/03 00:14:18;;;;;;;;;;;;;;;10.31;96.33;101279.22;5071677;28;20033;-62
2023/01/03 00:16:43;;;;;;;;;;;;;;;10.30;96.35;101280.97;5073637;28;19937;-61
2023/01/03 00:19:10;;;;;;;;;;;;;;;10.32;95.61;101278.31;5087076;28;19957;-61
2023/01/03 00:21:35;;;;;;;;;;;;;;;10.32;96.37;101281.84;5086283;28;19975;-61
2023/01/03 00:24:01;;;;;;;;;;;;;;;10.27;95.55;101286.34;5091156;28;19974;-61
2023/01/03 00:26:26;;;;;;;;;;;;;;;10.24;95.09;101280.16;5089616;28;19935;-61
2023/01/03 00:28:51;;;;;;;;;;;;;;;10.17;96.01;101279.34;5072267;28;19986;-61
2023/01/03 00:31:16;;;;;;;;;;;;;;;10.08;95.22;101274.13;5084461;28;19937;-62
2023/01/03 00:33:42;;;;;;;;;;;;;;;9.99;95.32;101283.94;5091020;28;20020;-61
2023/01/03 00:36:08;;;;;;;;;;;;;;;9.89;95.21;101277.84;5077939;28;19994;-62
2023/01/03 00:38:34;;;;;;;;;;;;;;;9.80;96.07;101269.94;5092897;28;20041;-62
2023/01/03 00:41:16;;;;;;;;;;;;;;;9.73;97.06;101275.34;5057282;28;20050;-61
2023/01/03 00:43:42;;;;;;;;;;;;;;;9.62;96.99;101262.16;5075185;28;20031;-61
2023/01/03 00:46:09;;;;;;;;;;;;;;;9.59;98.23;101256.00;5077476;28;19995;-62
2023/01/03 00:48:34;;;;;;;;;;;;;;;9.31;98.77;101223.47;5095398;28;19930;-61
2023/01/03 00:51:06;;;;;;;;;;;;;;;9.53;99.04;101267.56;5103521;28;19954;-61
2023/01/03 00:53:31;;;;;;;;;;;;;;;9.47;99.73;101272.03;5093042;28;20376;-61
2023/01/03 00:56:01;;;;;;;;;;;;;;;9.38;99.44;101267.69;5095018;28;19939;-62
2023/01/03 00:58:28;;;;;;;;;;;;;;;9.29;100.00;101273.94;5077318;28;19960;-61
2023/01/03 01:00:53;;;;;;;;;;;;;;;9.23;100.00;101281.06;5074507;28;19949;-61
2023/01/03 01:03:19;;;;;;;;;;;;;;;9.19;100.00;101285.50;5081939;28;19941;-61
2023/01/03 01:05:44;;;;;;;;;;;;;;;9.19;100.00;101279.34;5090717;28;19956;-61
2023/01/03 01:08:09;;;;;;;;;;;;;;;9.15;100.00;101277.59;5094510;28;19931;-61
2023/01/03 01:10:34;;;;;;;;;;;;;;;9.10;100.00;101280.28;5094965;28;19957;-62
2023/01/03 01:13:00;;;;;;;;;;;;;;;9.05;100.00;101283.84;5094992;28;19932;-61
2023/01/03 01:15:25;;;;;;;;;;;;;;;8.98;100.00;101284.75;5087147;28;19946;-61
2023/01/03 01:17:50;;;;;;;;;;;;;;;8.97;100.00;101293.63;5074649;28;20504;-61
2023/01/03 01:20:16;;;;;;;;;;;;;;;8.97;100.00;101297.16;5078571;28;19952;-62
2023/01/03 01:22:41;;;;;;;;;;;;;;;8.96;100.00;101292.72;5074438;28;20376;-61
2023/01/03 01:25:07;;;;;;;;;;;;;;;8.92;100.00;101298.06;5094544;28;20023;-61
2023/01/03 01:27:32;;;;;;;;;;;;;;;8.85;100.00;101298.97;5085378;28;19934;-61
2023/01/03 01:29:57;;;;;;;;;;;;;;;8.81;100.00;101299.91;5074139;28;19940;-61
2023/01/03 01:32:22;;;;;;;;;;;;;;;8.77;100.00;101298.16;5074724;28;19934;-62
2023/01/03 01:34:48;;;;;;;;;;;;;;;8.77;100.00;101300.78;5075676;28;20443;-62
2023/01/03 01:37:13;;;;;;;;;;;;;;;8.76;100.00;101299.94;5085994;28;19937;-62
2023/01/03 01:39:38;;;;;;;;;;;;;;;8.79;100.00;101291.97;5083693;28;19952;-62
2023/01/03 01:44:54;;;;;;;;;;;;;;;8.69;100.00;101305.25;5074142;28;20019;-62
2023/01/03 01:47:19;;;;;;;;;;;;;;;8.60;100.00;101305.31;5075993;28;20291;-61
2023/01/03 01:49:45;;;;;;;;;;;;;;;8.53;100.00;101314.19;5074010;28;19976;-62
2023/01/03 01:52:12;;;;;;;;;;;;;;;8.47;100.00;101314.19;5075803;28;20743;-62
2023/01/03 01:54:40;;;;;;;;;;;;;;;8.39;100.00;101315.97;5073427;28;20346;-62
2023/01/03 01:57:06;;;;;;;;;;;;;;;8.32;100.00;101314.25;5076632;28;19934;-62
2023/01/03 01:59:31;;;;;;;;;;;;;;;8.25;100.00;101312.50;5073599;28;19957;-62
2023/01/03 02:01:57;;;;;;;;;;;;;;;8.21;100.00;101326.59;5073552;28;19981;-61
2023/01/03 02:04:25;;;;;;;;;;;;;;;8.17;100.00;101324.84;5089686;28;20007;-61
2023/01/03 02:06:51;;;;;;;;;;;;;;;8.14;100.00;101317.78;5093925;28;19942;-61
2023/01/03 02:09:16;;;;;;;;;;;;;;;8.10;100.00;101313.38;5093734;28;19934;-61
2023/01/03 02:14:43;;;;;;;;;;;;;;;8.00;100.00;101312.53;5073514;28;20405;-61
2023/01/03 02:17:11;;;;;;;;;;;;;;;7.97;100.00;101312.50;5077749;28;20408;-61
2023/01/03 02:19:55;;;;;;;;;;;;;;;7.94;100.00;101312.50;5093567;28;20002;-61
2023/01/03 02:22:23;;;;;;;;;;;;;;;7.88;100.00;101320.47;5091427;28;20391;-61
2023/01/03 02:24:48;;;;;;;;;;;;;;;7.86;100.00;101324.88;5107665;28;20456;-61
2023/01/03 02:27:13;;;;;;;;;;;;;;;7.86;100.00;101316.94;5113850;28;19931;-61
2023/01/03 02:29:53;;;;;;;;;;;;;;;7.88;100.00;101315.19;5113617;28;19932;-61
2023/01/03 02:32:22;;;;;;;;;;;;;;;7.92;100.00;101313.41;5099592;28;19939;-61
2023/01/03 02:35:03;;;;;;;;;;;;;;;7.90;100.00;101308.13;5073068;28;19943;-60
2023/01/03 02:37:38;;;;;;;;;;;;;;;7.94;100.00;101312.50;5087115;28;19941;-60
2023/01/03 02:40:03;;;;;;;;;;;;;;;7.99;100.00;101310.75;5095532;28;20382;-60
2023/01/03 02:45:23;;;;;;;;;;;;;;;8.05;100.00;101310.72;5093407;28;19941;-60
2023/01/03 02:47:56;;;;;;;;;;;;;;;7.99;100.00;101315.16;5080715;28;20144;-60
2023/01/03 02:50:24;;;;;;;;;;;;;;;7.91;100.00;101306.31;5072676;28;20022;-60
2023/01/03 02:52:51;;;;;;;;;;;;;;;7.84;100.00;101316.06;5072884;28;19939;-61
2023/01/03 02:55:19;;;;;;;;;;;;;;;7.72;100.00;101321.38;5071629;28;19937;-60
2023/01/03 02:57:48;;;;;;;;;;;;;;;7.65;100.00;101316.97;5075202;28;19943;-60
2023/01/03 03:00:19;;;;;;;;;;;;;;;7.55;100.00;101317.84;5072376;28;19956;-61
2023/01/03 03:02:50;;;;;;;;;;;;;;;7.46;100.00;101325.75;5082738;28;20429;-60
2023/01/03 03:05:20;;;;;;;;;;;;;;;7.39;100.00;101326.66;5072569;28;19961;-60
2023/01/03 03:07:45;;;;;;;;;;;;;;;7.34;100.00;101322.22;5085923;28;19927;-61
2023/01/03 03:13:13;;;;;;;;;;;;;;;7.19;100.00;101317.81;5072754;28;19937;-60
2023/01/03 03:15:45;;;;;;;;;;;;;;;7.11;100.00;101314.25;5072377;28;20392;-60
2023/01/03 03:18:13;;;;;;;;;;;;;;;7.05;100.00;101316.88;5082851;28;19947;-61
2023/01/03 03:26:12;;;;;;;;;;;;;;;6.95;100.00;101317.75;5072346;28;19943;-60
2023/01/03 03:28:42;;;;;;;;;;;;;;;6.97;100.00;101315.97;5092760;28;19931;-60
2023/01/03 03:31:43;;;;;;;;;;;;;;;6.97;100.00;101317.75;5112733;28;20375;-60
2023/01/03 03:34:12;;;;;;;;;;;;;;;6.98;100.00;101315.13;5021280;28;20077;-60
2023/01/03 03:36:58;;;;;;;;;;;;;;;7.02;100.00;101314.22;5080310;28;19935;-61
2023/01/03 03:45:33;;;;;;;;;;;;;;;7.11;100.00;101319.56;5077933;28;20023;-60
2023/01/03 03:48:09;;;;;;;;;;;;;;;7.11;100.00;101319.56;5070107;28;20007;-60
2023/01/03 03:50:52;;;;;;;;;;;;;;;7.07;100.00;101317.75;5071986;28;20379;-60
2023/01/03 03:53:20;;;;;;;;;;;;;;;7.06;100.00;101312.47;5069765;28;19971;-60
2023/01/03 03:55:57;;;;;;;;;;;;;;;6.98;100.00;101317.75;5073323;28;19989;-61
2023/01/03 03:58:25;;;;;;;;;;;;;;;6.97;100.00;101323.91;5092810;28;20018;-61
2023/01/03 04:00:52;;;;;;;;;;;;;;;7.01;100.00;101328.34;5090842;28;20045;-60
2023/01/03 04:03:18;;;;;;;;;;;;;;;7.04;100.00;101328.34;5079702;28;19962;-60
2023/01/03 04:05:56;;;;;;;;;;;;;;;7.08;100.00;101329.25;5079520;28;19960;-60
2023/01/03 04:08:22;;;;;;;;;;;;;;;7.09;100.00;101333.63;5071243;28;19931;-61
2023/01/03 04:10:47;;;;;;;;;;;;;;;7.08;100.00;101326.59;5085814;28;19941;-60
2023/01/03 04:13:13;;;;;;;;;;;;;;;7.00;100.00;101337.13;5071350;28;19937;-60
2023/01/03 04:15:38;;;;;;;;;;;;;;;6.98;100.00;101338.91;5073720;28;19967;-60
2023/01/03 04:18:03;;;;;;;;;;;;;;;7.06;100.00;101333.63;5071385;28;19976;-60
2023/01/03 04:20:29;;;;;;;;;;;;;;;7.13;100.00;101338.97;5077422;28;20012;-60
2023/01/03 04:22:54;;;;;;;;;;;;;;;7.12;100.00;101338.94;5073938;28;19933;-60
2023/01/03 04:25:19;;;;;;;;;;;;;;;7.08;100.00;101332.78;5071405;28;19943;-61
2023/01/03 04:27:45;;;;;;;;;;;;;;;7.05;100.00;101330.09;5071063;28;20373;-60
2023/01/03 04:30:11;;;;;;;;;;;;;;;6.99;100.00;101327.44;5073363;28;19939;-61
2023/01/03 04:32:36;;;;;;;;;;;;;;;6.95;100.00;101336.28;5071312;28;19950;-60
2023/01/03 04:35:02;;;;;;;;;;;;;;;6.94;100.00;101338.88;5078495;28;20382;-60
2023/01/03 04:37:27;;;;;;;;;;;;;;;6.94;100.00;101336.25;5084848;28;19940;-61
2023/01/03 04:39:52;;;;;;;;;;;;;;;6.95;100.00;101332.72;5091662;28;19962;-60
2023/01/03 04:45:02;;;;;;;;;;;;;;;6.95;100.00;101328.34;5073554;28;19974;-60
2023/01/03 04:47:27;;;;;;;;;;;;;;;6.93;100.00;101338.03;5070639;28;19964;-60
2023/01/03 04:49:52;;;;;;;;;;;;;;;6.95;100.00;101343.31;5073302;28;20721;-60
2023/01/03 04:52:17;;;;;;;;;;;;;;;6.93;100.00;101345.06;5090883;28;20005;-60
2023/01/03 04:54:43;;;;;;;;;;;;;;;6.94;100.00;101347.72;5084000;28;19939;-60
2023/01/03 04:57:08;;;;;;;;;;;;;;;6.93;100.00;101345.97;5070796;28;19936;-60
2023/01/03 04:59:35;;;;;;;;;;;;;;;6.90;100.00;101345.06;5071022;28;20013;-60
2023/01/03 05:02:00;;;;;;;;;;;;;;;6.86;100.00;101352.09;5071003;28;20084;-60
2023/01/03 05:04:26;;;;;;;;;;;;;;;6.83;100.00;101349.44;5086720;28;20062;-60
2023/01/03 05:06:52;;;;;;;;;;;;;;;6.79;100.00;101349.44;5081834;28;20449;-60
2023/01/03 05:09:17;;;;;;;;;;;;;;;6.75;100.00;101345.91;5073461;28;19943;-60
2023/01/03 05:11:43;;;;;;;;;;;;;;;6.72;100.00;101348.53;5070968;28;19932;-60
2023/01/03 05:14:09;;;;;;;;;;;;;;;6.67;100.00;101347.63;5086007;28;19931;-60
2023/01/03 05:16:34;;;;;;;;;;;;;;;6.62;100.00;101347.56;5073124;28;19949;-60
2023/01/03 05:18:59;;;;;;;;;;;;;;;6.57;100.00;101346.69;5076225;28;20340;-60
2023/01/03 05:26:54;;;;;;;;;;;;;;;6.59;100.00;101359.91;5073825;28;19939;-60
2023/01/03 05:29:20;;;;;;;;;;;;;;;6.55;100.00;101360.78;5073710;28;20517;-60
2023/01/03 05:31:46;;;;;;;;;;;;;;;6.52;100.00;101366.06;5091611;28;20280;-60
2023/01/03 05:34:11;;;;;;;;;;;;;;;6.47;100.00;101370.44;5083889;28;19940;-60
2023/01/03 05:36:36;;;;;;;;;;;;;;;6.39;100.00;101377.44;5083267;28;20047;-60
2023/01/03 05:39:02;;;;;;;;;;;;;;;6.38;100.00;101373.00;5089509;28;19931;-60
2023/01/03 05:44:12;;;;;;;;;;;;;;;6.41;100.00;101378.31;5078170;28;19966;-61
2023/01/03 05:46:37;;;;;;;;;;;;;;;6.41;100.00;101370.38;5073417;28;20402;-60
2023/01/03 05:49:02;;;;;;;;;;;;;;;6.40;100.00;101368.63;5091513;28;20297;-60
2023/01/03 05:51:27;;;;;;;;;;;;;;;6.36;100.00;101378.28;5092917;28;20015;-60
2023/01/03 05:53:53;;;;;;;;;;;;;;;6.32;100.00;101370.34;5087010;28;20302;-60
2023/01/03 05:56:18;;;;;;;;;;;;;;;6.31;100.00;101377.38;5072409;28;19925;-61
2023/01/03 05:58:43;;;;;;;;;;;;;;;6.28;100.00;101369.44;5072419;28;19930;-60
2023/01/03 06:01:10;;;;;;;;;;;;;;;6.28;100.00;101379.09;5075232;28;19963;-60
2023/01/03 06:03:35;;;;;;;;;;;;;;;6.25;100.00;101374.69;5080720;28;19936;-60
2023/01/03 06:06:01;;;;;;;;;;;;;;;6.21;100.00;101372.03;5092310;28;19950;-60
2023/01/03 06:08:26;;;;;;;;;;;;;;;6.22;100.00;101379.97;5090179;28;19938;-60
2023/01/03 06:10:52;;;;;;;;;;;;;;;6.29;100.00;101380.88;5093895;28;20667;-60
2023/01/03 06:13:17;;;;;;;;;;;;;;;6.34;100.00;101385.31;5085739;28;19936;-60
2023/01/03 06:17:53;;;;;;;;;;;;;;;6.38;100.00;101380.94;5073089;28;19940;-60
2023/01/03 06:18:28;;;;;;;;;;;;;;;6.40;100.00;101385.38;5074276;28;20416;-60
2023/01/03 06:20:53;;;;;;;;;;;;;;;6.41;100.00;101388.88;5091941;28;19946;-60
2023/01/03 06:23:18;;;;;;;;;;;;;;;6.44;100.00;101392.41;5093869;28;20296;-60
2023/01/03 06:25:44;;;;;;;;;;;;;;;6.46;100.00;101395.97;5096022;28;19973;-60
2023/01/03 06:28:09;;;;;;;;;;;;;;;6.45;100.00;101394.22;5092219;28;19963;-60
2023/01/03 06:30:34;;;;;;;;;;;;;;;6.43;100.00;101393.31;5092366;28;19940;-60
2023/01/03 06:32:59;;;;;;;;;;;;;;;6.39;100.00;101399.44;5093136;28;19938;-60
2023/01/03 06:35:25;;;;;;;;;;;;;;;6.37;100.00;101400.31;5089353;28;20407;-60
2023/01/03 06:37:50;;;;;;;;;;;;;;;6.32;100.00;101396.75;5093440;28;19936;-60
2023/01/03 06:40:15;;;;;;;;;;;;;;;6.34;100.00;101405.59;5085366;28;20381;-60
2023/01/03 06:42:43;;;;;;;;;;;;;;;6.42;100.00;101403.88;5089340;28;20026;-60
2023/01/03 06:53:23;;;;;;;;;;;;;;;6.74;100.00;101399.63;5088785;28;20054;-60
2023/01/03 06:55:48;;;;;;;;;;;;;;;6.76;100.00;101397.88;5093172;28;20375;-60
2023/01/03 06:58:13;;;;;;;;;;;;;;;6.77;100.00;101406.72;5085722;28;19934;-60
2023/01/03 07:00:42;;;;;;;;;;;;;;;6.74;100.00;101402.28;5072713;28;19993;-60
2023/01/03 07:03:07;;;;;;;;;;;;;;;6.70;100.00;101401.38;5075509;28;19978;-60
2023/01/03 07:05:32;;;;;;;;;;;;;;;6.67;100.00;101405.78;5092853;28;19950;-60
2023/01/03 07:07:57;;;;;;;;;;;;;;;6.64;100.00;101400.47;5085124;28;20415;-60
2023/01/03 07:10:23;;;;;;;;;;;;;;;6.62;100.00;101403.09;5092769;28;20004;-60
2023/01/03 07:15:33;;;;;;;;;;;;;;;6.62;100.00;101402.22;5091398;28;19932;-60
2023/01/03 07:17:58;;;;;;;;;;;;;;;6.57;100.00;101402.19;5073945;28;20306;-60
2023/01/03 07:20:23;;;;;;;;;;;;;;;6.53;100.00;101412.75;5071120;28;19952;-60
2023/01/03 07:22:49;;;;;;;;;;;;;;;6.49;100.00;101410.97;5073447;28;19940;-60
2023/01/03 07:25:14;;;;;;;;;;;;;;;6.44;100.00;101410.06;5069935;28;19997;-60
2023/01/03 07:27:39;;;;;;;;;;;;;;;6.40;100.00;101411.78;5068759;28;19943;-61
2023/01/03 07:30:05;;;;;;;;;;;;;;;6.38;100.00;101413.53;5073590;28;20492;-61
2023/01/03 07:32:30;;;;;;;;;;;;;;;6.39;100.00;101419.72;5074467;28;20039;-60
2023/01/03 07:34:55;;;;;;;;;;;;;;;6.40;100.00;101418.81;5071328;28;19929;-60
2023/01/03 07:37:20;;;;;;;;;;;;;;;6.38;100.00;101417.94;5075831;28;19939;-60
2023/01/03 07:39:46;;;;;;;;;;;;;;;6.36;100.00;101424.94;5072363;28;19958;-60
2023/01/03 07:44:55;;;;;;;;;;;;;;;6.33;100.00;101441.69;5091159;28;19932;-60
2023/01/03 07:47:20;;;;;;;;;;;;;;;6.33;100.00;101441.69;5091846;28;19931;-60
2023/01/03 07:49:45;;;;;;;;;;;;;;;6.34;100.00;101447.88;5093867;28;19940;-60
2023/01/03 07:52:11;;;;;;;;;;;;;;;6.33;100.00;101440.78;5087722;28;20010;-60
2023/01/03 07:54:36;;;;;;;;;;;;;;;6.33;100.00;101441.69;5091844;28;20041;-60
2023/01/03 07:57:01;;;;;;;;;;;;;;;6.32;100.00;101445.22;5091956;28;19985;-60
2023/01/03 07:59:26;;;;;;;;;;;;;;;6.32;100.00;101447.84;5073386;28;19943;-60
2023/01/03 08:01:52;;;;;;;;;;;;;;;6.31;100.00;101447.84;5087997;28;19930;-60
2023/01/03 08:04:17;;;;;;;;;;;;;;;6.31;100.00;101453.13;5090352;28;19989;-60
2023/01/03 08:06:42;;;;;;;;;;;;;;;6.28;100.00;101451.34;5086327;28;19941;-60
2023/01/03 08:14:35;;;;;;;;;;;;;;;6.30;100.00;101461.91;5086739;28;20080;-60
2023/01/03 08:17:01;;;;;;;;;;;;;;;6.34;100.00;101458.44;5072755;28;20340;-60
2023/01/03 08:19:26;;;;;;;;;;;;;;;6.38;100.00;101465.50;5070385;28;19930;-60
2023/01/03 08:21:51;;;;;;;;;;;;;;;6.42;100.00;101468.19;5077857;28;19933;-60
2023/01/03 08:24:16;;;;;;;;;;;;;;;6.42;100.00;101473.47;5071057;28;19938;-60
2023/01/03 08:26:42;;;;;;;;;;;;;;;6.40;100.00;101479.59;5073637;28;19944;-60
2023/01/03 08:29:07;;;;;;;;;;;;;;;6.37;100.00;101475.19;5071276;28;20408;-60
2023/01/03 08:31:34;;;;;;;;;;;;;;;6.43;100.00;101476.97;5071333;28;19980;-60
2023/01/03 08:34:02;;;;;;;;;;;;;;;6.43;100.00;101488.44;5084199;28;20361;-60
2023/01/03 08:36:31;;;;;;;;;;;;;;;6.47;100.00;101487.56;5086074;28;20368;-60
2023/01/03 08:39:03;;;;;;;;;;;;;;;6.55;100.00;101485.00;5106842;28;19935;-60
2023/01/03 08:41:30;;;;;;;;;;;;;;;6.65;100.00;101497.41;5105776;28;19954;-60
2023/01/03 08:43:57;;;;;;;;;;;;;;;6.71;100.00;101492.16;5071905;28;19961;-60
2023/01/03 08:46:23;;;;;;;;;;;;;;;6.80;100.00;101500.16;5071174;28;19965;-60
2023/01/03 08:48:48;;;;;;;;;;;;;;;6.85;100.00;101501.06;5073315;28;19985;-60
2023/01/03 08:51:13;;;;;;;;;;;;;;;6.92;100.00;101497.56;5070922;28;19963;-60
2023/01/03 08:53:38;;;;;;;;;;;;;;;7.03;100.00;101490.59;5077390;28;20013;-60
2023/01/03 08:56:05;;;;;;;;;;;;;;;7.11;100.00;101495.91;5095227;28;19976;-60
2023/01/03 08:58:30;;;;;;;;;;;;;;;7.19;100.00;101497.72;5094842;28;19939;-60
2023/01/03 09:00:59;;;;;;;;;;;;;;;7.31;100.00;101492.50;5090906;28;19977;-60
2023/01/03 09:03:24;;;;;;;;;;;;;;;7.47;100.00;101494.31;5095197;28;19984;-60
2023/01/03 09:05:50;;;;;;;;;;;;;;;7.55;100.00;101492.56;5090442;28;19996;-60
2023/01/03 09:08:17;;;;;;;;;;;;;;;7.63;100.00;101501.41;5095104;28;19937;-60
2023/01/03 09:10:42;;;;;;;;;;;;;;;7.77;100.00;101514.72;5095090;28;19940;-60
2023/01/03 09:13:07;;;;;;;;;;;;;;;7.84;100.00;101506.75;5081205;28;20032;-60
2023/01/03 09:15:33;;;;;;;;;;;;;;;7.87;100.00;101517.38;5074033;28;19976;-60
2023/01/03 09:17:58;;;;;;;;;;;;;;;7.90;100.00;101506.81;5074908;28;19968;-60
2023/01/03 09:20:23;;;;;;;;;;;;;;;8.04;100.00;101505.03;5074416;28;20301;-61
2023/01/03 09:22:49;;;;;;;;;;;;;;;8.16;100.00;101514.78;5075032;28;19949;-60
2023/01/03 09:25:14;;;;;;;;;;;;;;;8.32;100.00;101516.56;5094719;28;19940;-60
2023/01/03 09:27:43;;;;;;;;;;;;;;;8.54;100.00;101515.72;5083619;28;20278;-61
2023/01/03 09:30:09;;;;;;;;;;;;;;;8.68;100.00;101521.00;5077230;28;20068;-60
2023/01/03 09:32:34;;;;;;;;;;;;;;;8.93;100.00;101512.09;5092102;28;20020;-61
2023/01/03 09:34:59;;;;;;;;;;;;;;;9.31;100.00;101510.22;5073729;28;20413;-60
2023/01/03 09:37:24;;;;;;;;;;;;;;;9.83;100.00;101517.06;5087560;28;19937;-60
2023/01/03 09:39:50;;;;;;;;;;;;;;;10.84;100.00;101516.28;5081894;28;19982;-60
2023/01/03 09:45:20;;;;;;;;;;;;;;;13.36;95.17;101517.91;5074295;28;20028;-61
2023/01/03 09:47:45;;;;;;;;;;;;;;;14.88;85.16;101515.22;5076239;28;19949;-61
2023/01/03 09:50:16;;;;;;;;;;;;;;;16.32;69.79;101519.94;5095184;28;19935;-61
2023/01/03 10:04:12;;;;;;;;;;;;;;;20.77;47.35;101520.19;5082232;28;19957;-62
2023/01/03 10:06:44;;;;;;;;;;;;;;;20.93;46.20;101521.19;5091875;28;20048;-62
2023/01/03 10:09:25;;;;;;;;;;;;;;;21.33;46.05;101517.31;5093474;28;20027;-61
2023/01/03 10:12:09;;;;;;;;;;;;;;;21.39;44.23;101522.38;5081092;28;19948;-62
2023/01/03 10:14:34;;;;;;;;;;;;;;;20.82;45.77;101512.72;5089851;28;19938;-62
2023/01/03 10:16:59;;;;;;;;;;;;;;;20.64;47.33;101512.78;5089972;28;19949;-62
2023/01/03 10:19:24;;;;;;;;;;;;;;;21.23;46.11;101507.91;5093567;28;19940;-62
2023/01/03 10:22:09;;;;;;;;;;;;;;;21.66;45.85;101520.03;5093503;28;20017;-61
2023/01/03 10:24:45;;;;;;;;;;;;;;;22.15;44.93;101511.84;5075590;28;19989;-62
2023/01/03 10:27:18;;;;;;;;;;;;;;;22.62;43.71;101517.25;5072669;28;19973;-62
2023/01/03 10:29:44;;;;;;;;;;;;;;;22.84;42.72;101509.63;5075143;28;19952;-62
2023/01/03 10:32:28;;;;;;;;;;;;;;;22.50;43.30;101514.38;5079882;28;19930;-62
2023/01/03 10:35:20;;;;;;;;;;;;;;;22.17;42.66;101512.59;5075595;28;19930;-61
2023/01/03 10:37:46;;;;;;;;;;;;;;;21.80;44.63;101512.03;5072366;28;20539;-62
2023/01/03 10:40:12;;;;;;;;;;;;;;;22.17;44.47;101514.47;5071799;28;20002;-62
2023/01/03 10:42:38;;;;;;;;;;;;;;;22.21;43.29;101509.75;5072066;28;19938;-62
2023/01/03 10:45:18;;;;;;;;;;;;;;;22.41;43.74;101506.75;5073601;28;19948;-63
2023/01/03 10:47:43;;;;;;;;;;;;;;;22.30;43.72;101509.22;5071521;28;20496;-63
2023/01/03 10:50:19;;;;;;;;;;;;;;;22.54;44.44;101491.53;5073753;28;19936;-63
2023/01/03 10:52:46;;;;;;;;;;;;;;;22.81;42.57;101490.81;5072646;28;19950;-63
2023/01/03 10:55:13;;;;;;;;;;;;;;;22.13;43.60;101492.06;5072769;28;20390;-62
2023/01/03 10:57:38;;;;;;;;;;;;;;;22.27;44.76;101482.28;5072711;28;19933;-63
2023/01/03 11:00:22;;;;;;;;;;;;;;;22.32;44.41;101481.06;5077595;28;20035;-63
2023/01/03 11:02:48;;;;;;;;;;;;;;;22.48;43.99;101481.91;5088431;28;19952;-63
2023/01/03 11:05:24;;;;;;;;;;;;;;;22.46;44.17;101482.94;5092645;28;20412;-63
2023/01/03 11:07:54;;;;;;;;;;;;;;;22.54;44.47;101487.00;5075749;28;19981;-63
2023/01/03 11:10:19;;;;;;;;;;;;;;;22.22;44.76;101487.97;5085057;28;20026;-63
2023/01/03 11:12:47;;;;;;;;;;;;;;;21.82;45.74;101485.75;5072263;28;20038;-63
2023/01/03 11:15:15;;;;;;;;;;;;;;;21.14;47.82;101480.44;5071530;28;19942;-63
2023/01/03 11:17:52;;;;;;;;;;;;;;;21.25;47.46;101484.31;5089868;28;20455;-63
2023/01/03 11:20:18;;;;;;;;;;;;;;;21.49;46.29;101477.63;5091350;28;20009;-64
2023/01/03 11:22:47;;;;;;;;;;;;;;;21.64;46.25;101476.78;5080118;28;20496;-63
2023/01/03 11:25:35;;;;;;;;;;;;;;;21.53;46.95;101473.75;5071530;28;19940;-63
2023/01/03 11:28:07;;;;;;;;;;;;;;;22.02;46.16;101466.53;5073583;28;19938;-64
2023/01/03 11:30:50;;;;;;;;;;;;;;;21.88;46.42;101471.84;5071296;28;20064;-64
2023/01/03 11:33:24;;;;;;;;;;;;;;;21.91;46.05;101459.00;5071423;28;19931;-64
2023/01/03 11:36:08;;;;;;;;;;;;;;;21.54;46.16;101463.81;5075190;28;19935;-64
2023/01/03 11:38:36;;;;;;;;;;;;;;;21.42;46.46;101467.19;5083899;28;19941;-63
2023/01/03 11:41:19;;;;;;;;;;;;;;;21.20;47.21;101466.59;5077006;28;19953;-63
2023/01/03 11:43:59;;;;;;;;;;;;;;;21.27;46.89;101459.91;5071937;28;20380;-63
2023/01/03 11:46:34;;;;;;;;;;;;;;;21.07;46.80;101462.81;5074151;28;20450;-63
2023/01/03 11:49:17;;;;;;;;;;;;;;;20.89;47.26;101454.66;5078795;28;19931;-63
2023/01/03 11:51:46;;;;;;;;;;;;;;;21.47;46.48;101454.28;5084792;28;19957;-63
2023/01/03 11:54:30;;;;;;;;;;;;;;;21.47;45.25;101451.56;5070886;28;19945;-63
2023/01/03 11:56:57;;;;;;;;;;;;;;;21.03;45.68;101450.38;5090943;28;19990;-63
2023/01/03 11:59:36;;;;;;;;;;;;;;;20.68;47.35;101450.34;5088947;28;20025;-62
2023/01/03 12:02:04;;;;;;;;;;;;;;;21.00;47.23;101447.84;5090752;28;20025;-63
2023/01/03 12:04:38;;;;;;;;;;;;;;;21.01;45.97;101455.00;5080806;28;20425;-62
2023/01/03 12:07:14;;;;;;;;;;;;;;;20.90;46.57;101450.97;5081861;28;19936;-62
2023/01/03 12:09:45;;;;;;;;;;;;;;;20.84;46.95;101440.50;5074024;28;19933;-62
2023/01/03 12:12:29;;;;;;;;;;;;;;;20.76;47.54;101442.72;5086321;28;20423;-62
2023/01/03 12:14:55;;;;;;;;;;;;;;;20.63;47.49;101444.31;5090874;28;19938;-62
2023/01/03 12:17:24;;;;;;;;;;;;;;;20.00;48.49;101450.19;5087740;28;19940;-62
2023/01/03 12:19:56;;;;;;;;;;;;;;;18.78;51.18;101447.75;5081978;28;19943;-61
2023/01/03 12:22:26;;;;;;;;;;;;;;;17.99;54.01;101455.56;5077706;28;20782;-61
2023/01/03 12:24:54;;;;;;;;;;;;;;;17.24;56.13;101449.53;5082818;28;19938;-61
2023/01/03 12:27:22;;;;;;;;;;;;;;;16.66;58.37;101448.94;5085206;28;19936;-61
2023/01/03 12:29:48;;;;;;;;;;;;;;;16.38;60.50;101448.09;5087971;28;20100;-61
2023/01/03 12:32:16;;;;;;;;;;;;;;;15.78;60.94;101442.03;5084601;28;20436;-62
2023/01/03 12:34:42;;;;;;;;;;;;;;;15.30;62.14;101436.31;5079390;28;19932;-61
2023/01/03 12:37:12;;;;;;;;;;;;;;;15.07;64.97;101438.78;5081452;28;19934;-61
2023/01/03 12:39:43;;;;;;;;;;;;;;;14.87;66.56;101438.47;5085959;28;20369;-62
2023/01/03 12:42:11;;;;;;;;;;;;;;;14.71;68.61;101434.41;5088407;28;20404;-61
2023/01/03 12:44:40;;;;;;;;;;;;;;;14.53;68.88;101437.59;5090529;28;19926;-62
2023/01/03 12:47:13;;;;;;;;;;;;;;;14.49;69.75;101430.56;5089628;28;19931;-61
2023/01/03 12:49:44;;;;;;;;;;;;;;;14.35;69.66;101422.88;5081037;28;19937;-61
2023/01/03 12:52:11;;;;;;;;;;;;;;;14.24;70.00;101418.69;5090510;28;19960;-60
2023/01/03 12:54:47;;;;;;;;;;;;;;;14.21;69.66;101422.34;5080689;28;19942;-60
2023/01/03 12:57:12;;;;;;;;;;;;;;;13.96;71.84;101421.16;5088888;28;19925;-61
2023/01/03 13:00:03;;;;;;;;;;;;;;;13.94;72.33;101411.41;5090374;28;20381;-60
2023/01/03 13:02:44;;;;;;;;;;;;;;;13.88;72.39;101414.25;5087141;28;20019;-60
2023/01/03 13:05:12;;;;;;;;;;;;;;;13.81;73.32;101416.19;5089264;28;19940;-60
2023/01/03 13:07:40;;;;;;;;;;;;;;;13.66;72.47;101419.19;5075683;28;20727;-60
2023/01/03 13:10:08;;;;;;;;;;;;;;;13.66;73.93;101415.63;5074481;28;20487;-60
2023/01/03 13:12:34;;;;;;;;;;;;;;;13.54;74.43;101418.63;5086327;28;19930;-60
2023/01/03 13:15:02;;;;;;;;;;;;;;;13.43;75.89;101416.16;5070690;28;20081;-60
2023/01/03 13:17:29;;;;;;;;;;;;;;;13.46;76.13;101404.53;5081433;28;19936;-60
2023/01/03 13:19:56;;;;;;;;;;;;;;;13.48;77.08;101400.91;5087046;28;19951;-61
2023/01/03 13:22:27;;;;;;;;;;;;;;;13.49;78.15;101396.44;5088953;28;19981;-60
2023/01/03 13:24:53;;;;;;;;;;;;;;;13.44;78.07;101409.94;5089633;28;20308;-60
2023/01/03 13:27:19;;;;;;;;;;;;;;;13.43;78.26;101399.25;5090030;28;19994;-60
2023/01/03 13:29:55;;;;;;;;;;;;;;;13.41;79.01;101404.63;5090428;28;19936;-61
2023/01/03 13:32:20;;;;;;;;;;;;;;;13.36;79.53;101401.16;5090774;28;19944;-60
2023/01/03 13:34:54;;;;;;;;;;;;;;;13.31;79.83;101407.53;5083971;28;19929;-60
2023/01/03 13:37:26;;;;;;;;;;;;;;;13.33;80.54;101403.91;5090715;28;20470;-60
2023/01/03 13:39:51;;;;;;;;;;;;;;;13.28;80.85;101396.94;5087244;28;19964;-60
2023/01/03 13:42:28;;;;;;;;;;;;;;;13.18;81.65;101401.56;5073546;28;20416;-60
2023/01/03 13:44:54;;;;;;;;;;;;;;;13.22;82.40;101408.63;5080763;28;19957;-60
2023/01/03 13:47:34;;;;;;;;;;;;;;;13.15;82.75;101402.53;5080561;28;20019;-61
2023/01/03 13:49:59;;;;;;;;;;;;;;;13.08;83.45;101400.88;5094213;28;19931;-60
2023/01/03 13:52:35;;;;;;;;;;;;;;;13.04;84.31;101409.00;5084908;28;20356;-60
2023/01/03 13:55:01;;;;;;;;;;;;;;;13.02;84.81;101395.69;5082436;28;19935;-61